Time;durP1;ratioP1;P1;durP2;ratioP2;P2;SDS_P1;SDS_P2;PMS_P1;PMS_P2;Temp;Humidity;BMP_temperature;BMP_pressure;BME280_temperature;BME280_humidity;BME280_pressure;Samples;Min_cycle;Max_cycle;Signal;HPM_P1;HPM_P2
2022/05/12 00:01:30;;;;;;;5.73;2.73;;;;;;;;;;5015551;28;20331;-78
2022/05/12 00:03:55;;;;;;;5.70;2.72;;;;;;;;;;5016009;28;20302;-78
2022/05/12 00:06:21;;;;;;;4.82;2.60;;;;;;;;;;5015887;28;20061;-79
2022/05/12 00:08:46;;;;;;;4.65;2.50;;;;;;;;;;5016256;28;20475;-77
2022/05/12 00:11:11;;;;;;;5.57;2.55;;;;;;;;;;5015517;28;20029;-78
2022/05/12 00:13:36;;;;;;;3.75;2.80;;;;;;;;;;5015957;28;20539;-77
2022/05/12 00:16:02;;;;;;;8.52;2.20;;;;;;;;;;5015829;28;20022;-78
2022/05/12 00:18:27;;;;;;;3.95;2.13;;;;;;;;;;5013997;28;20026;-78
2022/05/12 00:20:53;;;;;;;7.55;2.45;;;;;;;;;;5016178;28;20072;-79
2022/05/12 00:23:23;;;;;;;3.45;2.25;;;;;;;;;;5014586;28;20026;-80
2022/05/12 00:25:50;;;;;;;7.63;2.40;;;;;;;;;;5016816;28;20152;-79
2022/05/12 00:28:17;;;;;;;6.03;2.10;;;;;;;;;;5016462;28;20026;-79
2022/05/12 00:30:44;;;;;;;5.85;2.55;;;;;;;;;;5018045;28;20086;-79
2022/05/12 00:33:11;;;;;;;5.88;2.40;;;;;;;;;;5015740;28;20467;-78
2022/05/12 00:35:36;;;;;;;2.75;2.17;;;;;;;;;;5016371;28;20033;-78
2022/05/12 00:38:03;;;;;;;4.28;2.30;;;;;;;;;;5015436;28;20037;-77
2022/05/12 00:40:28;;;;;;;7.55;2.97;;;;;;;;;;5014176;28;20494;-79
2022/05/12 00:42:56;;;;;;;4.20;2.20;;;;;;;;;;5015823;28;20044;-78
2022/05/12 00:45:22;;;;;;;4.30;2.22;;;;;;;;;;5015044;28;20030;-78
2022/05/12 00:47:47;;;;;;;3.33;2.10;;;;;;;;;;5017616;28;20018;-79
2022/05/12 00:50:12;;;;;;;9.40;2.10;;;;;;;;;;5017663;28;20029;-78
2022/05/12 00:52:38;;;;;;;4.63;2.05;;;;;;;;;;5015836;28;20279;-78
2022/05/12 00:55:15;;;;;;;5.60;2.60;;;;;;;;;;5016027;28;20178;-79
2022/05/12 00:57:49;;;;;;;3.40;2.33;;;;;;;;;;5015290;28;20076;-77
2022/05/12 01:00:17;;;;;;;6.25;2.20;;;;;;;;;;5015697;28;20415;-79
2022/05/12 01:02:45;;;;;;;5.20;2.08;;;;;;;;;;5018236;28;20018;-78
2022/05/12 01:05:12;;;;;;;3.92;2.28;;;;;;;;;;5017494;28;20068;-78
2022/05/12 01:07:38;;;;;;;3.72;2.33;;;;;;;;;;5018564;28;20028;-78
2022/05/12 01:10:04;;;;;;;4.20;2.00;;;;;;;;;;5017673;28;20030;-79
2022/05/12 01:12:31;;;;;;;3.88;2.03;;;;;;;;;;5018114;28;20033;-78
2022/05/12 01:14:56;;;;;;;5.32;2.08;;;;;;;;;;5018220;28;20026;-79
2022/05/12 01:17:24;;;;;;;3.67;2.40;;;;;;;;;;5017734;28;20137;-79
2022/05/12 01:19:51;;;;;;;5.35;2.10;;;;;;;;;;5016116;28;20025;-79
2022/05/12 01:22:41;;;;;;;3.72;2.22;;;;;;;;;;5016394;28;20479;-78
2022/05/12 01:25:16;;;;;;;3.45;2.10;;;;;;;;;;5014867;28;20026;-77
2022/05/12 01:27:42;;;;;;;6.50;2.30;;;;;;;;;;5014716;28;20022;-78
2022/05/12 01:30:10;;;;;;;4.25;2.10;;;;;;;;;;5013185;28;20072;-77
2022/05/12 01:32:36;;;;;;;6.85;2.08;;;;;;;;;;5014064;28;20021;-77
2022/05/12 01:35:01;;;;;;;4.90;2.40;;;;;;;;;;5016472;28;20052;-79
2022/05/12 01:37:26;;;;;;;5.30;2.20;;;;;;;;;;5016514;28;20318;-78
2022/05/12 01:39:52;;;;;;;5.00;2.20;;;;;;;;;;5018275;28;20593;-79
2022/05/12 01:42:18;;;;;;;2.88;2.03;;;;;;;;;;5015085;28;20037;-79
2022/05/12 01:44:44;;;;;;;4.63;2.20;;;;;;;;;;5018495;28;20040;-78
2022/05/12 01:47:11;;;;;;;7.78;2.20;;;;;;;;;;5014773;28;20108;-78
2022/05/12 01:49:36;;;;;;;4.75;2.40;;;;;;;;;;5015132;28;20084;-79
2022/05/12 01:52:03;;;;;;;4.90;2.43;;;;;;;;;;5015500;28;20443;-78
2022/05/12 01:54:30;;;;;;;7.65;2.30;;;;;;;;;;5014030;28;20260;-80
2022/05/12 01:56:55;;;;;;;4.53;2.35;;;;;;;;;;5013775;28;20028;-78
2022/05/12 01:59:21;;;;;;;7.30;2.30;;;;;;;;;;5014874;28;20391;-77
2022/05/12 02:01:47;;;;;;;4.80;2.30;;;;;;;;;;5015182;28;20033;-78
2022/05/12 02:04:17;;;;;;;7.15;2.30;;;;;;;;;;5015220;28;20022;-79
2022/05/12 02:06:43;;;;;;;5.78;2.28;;;;;;;;;;5014949;28;20026;-78
2022/05/12 02:09:09;;;;;;;3.05;2.20;;;;;;;;;;5014642;28;20029;-79
2022/05/12 02:11:34;;;;;;;7.35;2.35;;;;;;;;;;5016858;28;20021;-78
2022/05/12 02:14:00;;;;;;;6.10;2.22;;;;;;;;;;5018579;28;20452;-79
2022/05/12 02:16:26;;;;;;;6.40;2.45;;;;;;;;;;5017318;28;20479;-78
2022/05/12 02:18:54;;;;;;;5.80;2.30;;;;;;;;;;5020472;28;20089;-78
2022/05/12 02:21:20;;;;;;;5.18;2.60;;;;;;;;;;5017180;28;20018;-77
2022/05/12 02:23:46;;;;;;;3.33;2.00;;;;;;;;;;5020138;28;20602;-78
2022/05/12 02:26:11;;;;;;;5.22;2.40;;;;;;;;;;5020735;28;20057;-79
2022/05/12 02:28:37;;;;;;;6.63;2.30;;;;;;;;;;5021149;28;20017;-78
2022/05/12 02:31:03;;;;;;;2.75;2.30;;;;;;;;;;5020509;28;20407;-77
2022/05/12 02:33:28;;;;;;;5.28;2.38;;;;;;;;;;5020536;28;20018;-78
2022/05/12 02:35:54;;;;;;;4.17;2.50;;;;;;;;;;5020712;28;20034;-79
2022/05/12 02:38:19;;;;;;;3.63;1.98;;;;;;;;;;5017721;28;20278;-78
2022/05/12 02:40:44;;;;;;;3.40;2.25;;;;;;;;;;5017750;28;20029;-79
2022/05/12 02:43:25;;;;;;;3.53;2.10;;;;;;;;;;5017640;28;20108;-79
2022/05/12 02:45:55;;;;;;;3.53;2.10;;;;;;;;;;5018656;28;20022;-79
2022/05/12 02:48:23;;;;;;;3.58;1.92;;;;;;;;;;5019509;28;20034;-78
2022/05/12 02:50:49;;;;;;;4.38;2.30;;;;;;;;;;5018071;28;20080;-78
2022/05/12 02:53:14;;;;;;;2.92;2.05;;;;;;;;;;5016360;28;20040;-77
2022/05/12 02:55:39;;;;;;;3.13;2.17;;;;;;;;;;5016660;28;20030;-77
2022/05/12 02:58:05;;;;;;;5.27;2.03;;;;;;;;;;5018181;28;20037;-78
2022/05/12 03:00:33;;;;;;;7.90;2.60;;;;;;;;;;5017151;28;20743;-79
2022/05/12 03:03:00;;;;;;;11.45;2.20;;;;;;;;;;5017228;28;20501;-78
2022/05/12 03:05:26;;;;;;;3.47;2.03;;;;;;;;;;5017484;28;20470;-80
2022/05/12 03:07:51;;;;;;;7.63;2.08;;;;;;;;;;5018128;28;20032;-77
2022/05/12 03:10:17;;;;;;;5.15;2.13;;;;;;;;;;5016913;28;20022;-79
2022/05/12 03:12:42;;;;;;;6.03;2.22;;;;;;;;;;5017331;28;20068;-79
2022/05/12 03:15:09;;;;;;;3.90;1.93;;;;;;;;;;5018033;28;20033;-78
2022/05/12 03:17:35;;;;;;;5.75;2.17;;;;;;;;;;5018317;28;20287;-79
2022/05/12 03:20:02;;;;;;;3.00;1.80;;;;;;;;;;5018189;28;20030;-79
2022/05/12 03:22:27;;;;;;;10.80;2.30;;;;;;;;;;5014921;28;20034;-80
2022/05/12 03:24:52;;;;;;;5.43;2.10;;;;;;;;;;5016379;28;20026;-78
2022/05/12 03:27:17;;;;;;;4.63;2.20;;;;;;;;;;5017858;28;20029;-79
2022/05/12 03:29:43;;;;;;;8.63;2.40;;;;;;;;;;5015056;28;20264;-78
2022/05/12 03:32:10;;;;;;;7.00;2.33;;;;;;;;;;5016150;28;20026;-79
2022/05/12 03:34:38;;;;;;;4.13;1.88;;;;;;;;;;5017617;28;20029;-79
2022/05/12 03:37:04;;;;;;;4.43;2.15;;;;;;;;;;5018350;28;20041;-80
2022/05/12 03:39:29;;;;;;;2.85;2.00;;;;;;;;;;5019194;28;20033;-79
2022/05/12 03:41:54;;;;;;;7.33;2.43;;;;;;;;;;5016303;28;20026;-79
2022/05/12 03:47:04;;;;;;;5.00;2.05;;;;;;;;;;5017479;28;20254;-78
2022/05/12 03:49:29;;;;;;;5.63;2.22;;;;;;;;;;5016060;28;20030;-79
2022/05/12 03:51:54;;;;;;;3.90;2.47;;;;;;;;;;5016036;28;20487;-78
2022/05/12 03:54:19;;;;;;;5.80;2.00;;;;;;;;;;5017449;28;20744;-78
2022/05/12 03:56:44;;;;;;;7.80;2.15;;;;;;;;;;5017897;28;20737;-78
2022/05/12 03:59:11;;;;;;;7.30;2.05;;;;;;;;;;5016540;28;20046;-79
2022/05/12 04:01:36;;;;;;;6.57;2.73;;;;;;;;;;5017462;28;20022;-79
2022/05/12 04:04:02;;;;;;;4.03;2.23;;;;;;;;;;5016110;28;20258;-79
2022/05/12 04:06:27;;;;;;;5.45;1.80;;;;;;;;;;5016500;28;20291;-78
2022/05/12 04:08:52;;;;;;;4.05;2.00;;;;;;;;;;5016073;28;20025;-79
2022/05/12 04:11:18;;;;;;;4.63;1.90;;;;;;;;;;5015088;28;20025;-78
2022/05/12 04:13:44;;;;;;;6.57;1.90;;;;;;;;;;5015241;28;20638;-78
2022/05/12 04:16:09;;;;;;;4.72;2.08;;;;;;;;;;5016073;28;20259;-79
2022/05/12 04:18:35;;;;;;;3.53;1.92;;;;;;;;;;5017143;28;20083;-78
2022/05/12 04:21:00;;;;;;;5.30;2.00;;;;;;;;;;5014293;28;20026;-78
2022/05/12 04:23:25;;;;;;;3.50;2.00;;;;;;;;;;5015326;28;20456;-77
2022/05/12 04:25:50;;;;;;;4.47;1.80;;;;;;;;;;5014213;28;20602;-78
2022/05/12 04:28:16;;;;;;;3.00;1.80;;;;;;;;;;5017467;28;20018;-79
2022/05/12 04:30:41;;;;;;;3.45;1.60;;;;;;;;;;5016845;28;20302;-79
2022/05/12 04:35:50;;;;;;;;;;;;;;;;;;5015948;28;20251;-78
2022/05/12 04:38:16;;;;;;;4.83;2.00;;;;;;;;;;5016455;28;19914;-77
2022/05/12 04:40:41;;;;;;;14.63;2.00;;;;;;;;;;5015821;28;20352;-79
2022/05/12 04:43:07;;;;;;;4.25;2.00;;;;;;;;;;5013254;28;20112;-79
2022/05/12 04:45:32;;;;;;;13.48;2.00;;;;;;;;;;5014932;28;20030;-78
2022/05/12 04:47:58;;;;;;;11.00;2.30;;;;;;;;;;5015335;28;20391;-79
2022/05/12 04:50:32;;;;;;;6.30;2.05;;;;;;;;;;5013478;28;20069;-79
2022/05/12 04:52:58;;;;;;;8.55;1.73;;;;;;;;;;5014785;28;20490;-77
2022/05/12 04:55:23;;;;;;;5.15;2.15;;;;;;;;;;5015250;28;20076;-79
2022/05/12 04:57:52;;;;;;;5.00;1.90;;;;;;;;;;5015678;28;20477;-79
2022/05/12 05:00:22;;;;;;;5.75;2.03;;;;;;;;;;5018786;28;20060;-79
2022/05/12 05:02:48;;;;;;;5.13;2.00;;;;;;;;;;5022141;28;20022;-78
2022/05/12 05:05:13;;;;;;;8.85;2.40;;;;;;;;;;5023788;28;20139;-77
2022/05/12 05:07:39;;;;;;;5.78;2.30;;;;;;;;;;5021155;28;20049;-77
2022/05/12 05:10:06;;;;;;;9.25;2.30;;;;;;;;;;5021286;28;20068;-78
2022/05/12 05:12:31;;;;;;;7.38;2.17;;;;;;;;;;5023375;28;20033;-77
2022/05/12 05:14:57;;;;;;;7.23;2.40;;;;;;;;;;5022753;28;20018;-79
2022/05/12 05:17:23;;;;;;;4.93;2.25;;;;;;;;;;5023192;28;20266;-77
2022/05/12 05:19:49;;;;;;;9.10;2.28;;;;;;;;;;5022782;28;20530;-77
2022/05/12 05:22:14;;;;;;;3.17;1.83;;;;;;;;;;5021017;28;20030;-78
2022/05/12 05:24:39;;;;;;;14.73;2.20;;;;;;;;;;5022799;28;20033;-78
2022/05/12 05:27:06;;;;;;;9.63;2.10;;;;;;;;;;5017637;28;20260;-79
2022/05/12 05:29:31;;;;;;;4.22;1.77;;;;;;;;;;5015529;28;20256;-78
2022/05/12 05:31:56;;;;;;;2.65;1.70;;;;;;;;;;5015208;28;20032;-78
2022/05/12 05:34:21;;;;;;;7.77;2.03;;;;;;;;;;5015174;28;20117;-78
2022/05/12 05:36:47;;;;;;;4.23;2.10;;;;;;;;;;5014805;28;20275;-79
2022/05/12 05:39:24;;;;;;;4.50;2.08;;;;;;;;;;5017206;28;20298;-78
2022/05/12 05:42:01;;;;;;;6.13;1.77;;;;;;;;;;5016950;28;20053;-79
2022/05/12 05:44:28;;;;;;;6.43;1.67;;;;;;;;;;5016367;28;20080;-78
2022/05/12 05:46:54;;;;;;;9.00;1.90;;;;;;;;;;5019597;28;20506;-79
2022/05/12 05:49:19;;;;;;;6.28;2.00;;;;;;;;;;5018617;28;20057;-78
2022/05/12 05:54:31;;;;;;;;;;;;;;;;;;5019550;28;20446;-77
2022/05/12 05:56:57;;;;;;;6.57;2.10;;;;;;;;;;5018086;28;19909;-78
2022/05/12 05:59:22;;;;;;;3.55;1.77;;;;;;;;;;5018199;28;20033;-78
2022/05/12 06:01:47;;;;;;;9.27;1.90;;;;;;;;;;5018391;28;20025;-78
2022/05/12 06:04:12;;;;;;;10.70;1.70;;;;;;;;;;5019226;28;20273;-78
2022/05/12 06:06:38;;;;;;;5.90;1.90;;;;;;;;;;5019058;28;20033;-78
2022/05/12 06:09:03;;;;;;;9.93;2.13;;;;;;;;;;5020044;28;20252;-78
2022/05/12 06:11:28;;;;;;;7.65;1.90;;;;;;;;;;5019693;28;20287;-78
2022/05/12 06:13:53;;;;;;;5.93;1.70;;;;;;;;;;5019119;28;20057;-78
2022/05/12 06:16:20;;;;;;;3.60;1.67;;;;;;;;;;5020097;28;20323;-78
2022/05/12 06:18:46;;;;;;;5.22;1.60;;;;;;;;;;5021541;28;20290;-79
2022/05/12 06:21:12;;;;;;;5.90;1.85;;;;;;;;;;5018018;28;20091;-78
2022/05/12 06:23:40;;;;;;;3.60;1.58;;;;;;;;;;5017890;28;20504;-77
2022/05/12 06:26:13;;;;;;;6.40;1.77;;;;;;;;;;5019367;28;20030;-78
2022/05/12 06:28:40;;;;;;;7.15;1.50;;;;;;;;;;5020521;28;20022;-78
2022/05/12 06:31:06;;;;;;;5.47;1.90;;;;;;;;;;5018487;28;20403;-78
2022/05/12 06:33:35;;;;;;;7.53;1.73;;;;;;;;;;5017752;28;20104;-77
2022/05/12 06:36:05;;;;;;;5.72;1.80;;;;;;;;;;5017650;28;20076;-79
2022/05/12 06:38:38;;;;;;;12.13;1.83;;;;;;;;;;5019195;28;20435;-79
2022/05/12 06:41:06;;;;;;;2.72;1.40;;;;;;;;;;5018846;28;20022;-78
2022/05/12 06:43:49;;;;;;;4.13;1.40;;;;;;;;;;5018132;28;20097;-78
2022/05/12 06:46:21;;;;;;;6.33;1.60;;;;;;;;;;5017950;28;20057;-79
2022/05/12 06:48:50;;;;;;;10.02;1.70;;;;;;;;;;5019066;28;20799;-78
2022/05/12 06:51:16;;;;;;;8.10;1.75;;;;;;;;;;5020277;28;20026;-78
2022/05/12 06:53:42;;;;;;;4.28;1.70;;;;;;;;;;5019539;28;20029;-78
2022/05/12 06:56:07;;;;;;;10.23;1.60;;;;;;;;;;5018039;28;20046;-79
2022/05/12 06:58:34;;;;;;;4.85;1.15;;;;;;;;;;5020155;28;20461;-78
2022/05/12 07:01:00;;;;;;;12.32;1.30;;;;;;;;;;5019334;28;20045;-79
2022/05/12 07:03:26;;;;;;;10.30;1.20;;;;;;;;;;5020087;28;20032;-79
2022/05/12 07:05:51;;;;;;;4.95;0.88;;;;;;;;;;5017742;28;20457;-77
2022/05/12 07:08:17;;;;;;;5.65;1.00;;;;;;;;;;5015934;28;20022;-78
2022/05/12 07:10:42;;;;;;;13.68;1.30;;;;;;;;;;5018939;28;20423;-78
2022/05/12 07:13:08;;;;;;;6.80;1.15;;;;;;;;;;5018046;28;20391;-77
2022/05/12 07:15:33;;;;;;;5.80;0.73;;;;;;;;;;5018159;28;20030;-77
2022/05/12 07:17:59;;;;;;;7.90;1.00;;;;;;;;;;5016389;28;20022;-77
2022/05/12 07:28:38;;;;;;;;;;;;;;;;;;5017776;28;20028;-78
2022/05/12 07:31:05;;;;;;;1.50;0.90;;;;;;;;;;5016761;28;20302;-79
2022/05/12 07:33:34;;;;;;;2.85;0.98;;;;;;;;;;5014053;28;20028;-78
2022/05/12 07:36:05;;;;;;;8.18;1.08;;;;;;;;;;5017185;28;20444;-79
2022/05/12 07:38:31;;;;;;;3.00;1.08;;;;;;;;;;5017438;28;20030;-78
2022/05/12 07:40:56;;;;;;;10.82;1.52;;;;;;;;;;5019008;28;20513;-79
2022/05/12 07:43:21;;;;;;;4.72;0.85;;;;;;;;;;5017638;28;20028;-79
2022/05/12 07:45:48;;;;;;;9.55;1.13;;;;;;;;;;5018650;28;20052;-79
2022/05/12 07:48:13;;;;;;;7.03;0.90;;;;;;;;;;5017757;28;20030;-79
2022/05/12 07:50:39;;;;;;;6.13;0.88;;;;;;;;;;5016877;28;20044;-78
2022/05/12 07:53:06;;;;;;;7.75;0.90;;;;;;;;;;5017572;28;20034;-77
2022/05/12 07:55:32;;;;;;;3.13;0.90;;;;;;;;;;5016740;28;20435;-78
2022/05/12 07:57:58;;;;;;;3.38;0.80;;;;;;;;;;5016346;28;20026;-77
2022/05/12 08:00:23;;;;;;;4.68;0.77;;;;;;;;;;5016128;28;20058;-78
2022/05/12 08:02:49;;;;;;;1.83;1.00;;;;;;;;;;5017493;28;20022;-79
2022/05/12 08:05:14;;;;;;;9.93;1.20;;;;;;;;;;5015678;28;20105;-77
2022/05/12 08:07:39;;;;;;;3.63;1.05;;;;;;;;;;5015505;28;20017;-78
2022/05/12 08:10:05;;;;;;;2.13;0.90;;;;;;;;;;5015491;28;20434;-78
2022/05/12 08:12:31;;;;;;;3.75;0.93;;;;;;;;;;5015956;28;20602;-78
2022/05/12 08:14:56;;;;;;;7.40;0.80;;;;;;;;;;5016030;28;20113;-79
2022/05/12 08:17:22;;;;;;;3.90;0.77;;;;;;;;;;5018201;28;20460;-79
2022/05/12 08:19:47;;;;;;;5.03;0.90;;;;;;;;;;5018486;28;20251;-79
2022/05/12 08:22:12;;;;;;;8.67;1.20;;;;;;;;;;5018059;28;20044;-78
2022/05/12 08:24:38;;;;;;;6.22;0.80;;;;;;;;;;5015360;28;20267;-77
2022/05/12 08:27:03;;;;;;;5.73;0.90;;;;;;;;;;5018280;28;20030;-78
2022/05/12 08:29:29;;;;;;;6.40;1.00;;;;;;;;;;5016284;28;20390;-78
2022/05/12 08:31:54;;;;;;;5.35;1.10;;;;;;;;;;5015734;28;20036;-77
2022/05/12 08:34:20;;;;;;;3.90;0.80;;;;;;;;;;5014742;28;20021;-78
2022/05/12 08:36:45;;;;;;;8.27;1.00;;;;;;;;;;5014264;28;20028;-78
2022/05/12 08:39:10;;;;;;;6.53;0.90;;;;;;;;;;5015149;28;20026;-77
2022/05/12 08:41:54;;;;;;;4.00;0.83;;;;;;;;;;5015308;28;20108;-78
2022/05/12 08:44:21;;;;;;;6.78;0.98;;;;;;;;;;5013872;28;20621;-75
2022/05/12 08:47:01;;;;;;;8.02;1.00;;;;;;;;;;5012072;28;20025;-74
2022/05/12 08:49:30;;;;;;;1.63;0.93;;;;;;;;;;5013453;28;20021;-76
2022/05/12 08:52:15;;;;;;;4.95;1.13;;;;;;;;;;5012092;28;20467;-74
2022/05/12 08:54:51;;;;;;;5.15;1.02;;;;;;;;;;5012145;28;20113;-75
2022/05/12 08:57:28;;;;;;;5.20;1.08;;;;;;;;;;5012559;28;20033;-74
2022/05/12 08:59:55;;;;;;;6.60;1.10;;;;;;;;;;5013678;28;20118;-75
2022/05/12 09:02:50;;;;;;;4.97;0.70;;;;;;;;;;5013737;28;20037;-74
2022/05/12 09:05:21;;;;;;;2.38;0.90;;;;;;;;;;5013568;28;20026;-75
2022/05/12 09:07:54;;;;;;;4.82;1.05;;;;;;;;;;5013701;28;20022;-75
2022/05/12 09:10:31;;;;;;;4.05;1.10;;;;;;;;;;5013891;28;20113;-75
2022/05/12 09:13:05;;;;;;;4.78;0.98;;;;;;;;;;5013629;28;20072;-75
2022/05/12 09:15:34;;;;;;;2.20;0.80;;;;;;;;;;5013855;28;20468;-74
2022/05/12 09:18:15;;;;;;;8.38;1.00;;;;;;;;;;5013270;28;20034;-74
2022/05/12 09:20:41;;;;;;;6.18;1.27;;;;;;;;;;5015957;28;20467;-74
2022/05/12 09:23:06;;;;;;;4.33;1.03;;;;;;;;;;5018862;28;20029;-75
2022/05/12 09:25:39;;;;;;;3.33;0.98;;;;;;;;;;5015758;28;20266;-75
2022/05/12 09:28:25;;;;;;;3.53;1.00;;;;;;;;;;5017498;28;20029;-74
2022/05/12 09:30:51;;;;;;;6.40;1.08;;;;;;;;;;5017219;28;20022;-75
2022/05/12 09:33:31;;;;;;;2.25;0.90;;;;;;;;;;5016248;28;20029;-75
2022/05/12 09:35:58;;;;;;;6.35;1.00;;;;;;;;;;5017060;28;20022;-75
2022/05/12 09:38:26;;;;;;;6.63;1.10;;;;;;;;;;5015345;28;20126;-75
2022/05/12 09:40:52;;;;;;;3.75;1.00;;;;;;;;;;5015486;28;20030;-75
2022/05/12 09:43:32;;;;;;;3.60;0.90;;;;;;;;;;5016941;28;20125;-75
2022/05/12 09:46:05;;;;;;;3.22;1.20;;;;;;;;;;5016614;28;20097;-75
2022/05/12 09:48:33;;;;;;;6.47;1.00;;;;;;;;;;5016653;28;20022;-75
2022/05/12 09:51:29;;;;;;;4.03;0.90;;;;;;;;;;5014969;28;20053;-74
2022/05/12 09:54:15;;;;;;;7.05;0.90;;;;;;;;;;5004132;28;20450;-74
2022/05/12 09:56:40;;;;;;;8.10;1.00;;;;;;;;;;5015142;28;20026;-74
2022/05/12 09:59:15;;;;;;;10.00;0.80;;;;;;;;;;5016422;28;20033;-75
2022/05/12 10:02:02;;;;;;;2.92;0.60;;;;;;;;;;5016308;28;20369;-74
2022/05/12 10:10:26;;;;;;;7.93;1.00;;;;;;;;;;5004982;28;20464;-75
2022/05/12 10:13:03;;;;;;;7.05;0.80;;;;;;;;;;5015922;28;20026;-76
2022/05/12 10:15:31;;;;;;;4.40;0.93;;;;;;;;;;5016348;28;20033;-75
2022/05/12 10:18:16;;;;;;;2.65;0.80;;;;;;;;;;5016158;28;20029;-76
2022/05/12 10:20:46;;;;;;;4.88;0.98;;;;;;;;;;5015791;28;20022;-75
2022/05/12 10:23:27;;;;;;;2.75;0.93;;;;;;;;;;5016258;28;20030;-76
2022/05/12 10:26:06;;;;;;;7.75;1.05;;;;;;;;;;5016249;28;20034;-75
2022/05/12 10:28:53;;;;;;;23.70;2.20;;;;;;;;;;5015969;28;20053;-75
2022/05/12 10:31:32;;;;;;;2.03;0.80;;;;;;;;;;5015496;28;20030;-75
2022/05/12 10:34:34;;;;;;;2.25;0.80;;;;;;;;;;5015959;28;20491;-76
2022/05/12 10:37:37;;;;;;;2.30;0.93;;;;;;;;;;5015980;28;20041;-76
2022/05/12 10:40:18;;;;;;;5.80;1.20;;;;;;;;;;5015879;28;20095;-74
2022/05/12 10:43:07;;;;;;;5.90;0.82;;;;;;;;;;5015781;28;20053;-75
2022/05/12 10:46:11;;;;;;;3.90;1.13;;;;;;;;;;5015995;28;20029;-75
2022/05/12 10:48:58;;;;;;;6.67;1.30;;;;;;;;;;5012763;28;20037;-75
2022/05/12 10:51:41;;;;;;;1.90;1.00;;;;;;;;;;5015543;28;20329;-74
2022/05/12 10:54:26;;;;;;;1.60;0.77;;;;;;;;;;5015345;28;20026;-74
2022/05/12 10:57:28;;;;;;;1.52;0.82;;;;;;;;;;5013999;28;20095;-75
2022/05/12 11:00:22;;;;;;;5.65;1.00;;;;;;;;;;5015344;28;20034;-75
2022/05/12 11:02:52;;;;;;;3.20;0.90;;;;;;;;;;5013964;28;20375;-75
2022/05/12 11:05:38;;;;;;;4.85;1.08;;;;;;;;;;5013772;28;20745;-75
2022/05/12 11:08:18;;;;;;;4.68;1.00;;;;;;;;;;5015447;28;20089;-75
2022/05/12 11:10:51;;;;;;;3.85;1.00;;;;;;;;;;5015122;28;20037;-75
2022/05/12 11:13:32;;;;;;;5.88;0.90;;;;;;;;;;5013693;28;20503;-75
2022/05/12 11:16:15;;;;;;;5.18;0.90;;;;;;;;;;5013595;28;20079;-75
2022/05/12 11:19:14;;;;;;;7.90;0.90;;;;;;;;;;5014713;28;20542;-75
2022/05/12 11:21:51;;;;;;;2.35;0.85;;;;;;;;;;5014987;28;20080;-75
2022/05/12 11:24:27;;;;;;;3.15;1.10;;;;;;;;;;5014850;28;20112;-75
2022/05/12 11:27:06;;;;;;;3.03;0.90;;;;;;;;;;5014987;28;20037;-75
2022/05/12 11:29:51;;;;;;;4.38;1.10;;;;;;;;;;5014643;28;20018;-75
2022/05/12 11:32:37;;;;;;;3.15;0.88;;;;;;;;;;5013429;28;20056;-76
2022/05/12 11:35:15;;;;;;;4.22;1.02;;;;;;;;;;5014549;28;20029;-75
2022/05/12 11:37:40;;;;;;;5.90;1.15;;;;;;;;;;5014621;28;20034;-75
2022/05/12 11:40:11;;;;;;;2.90;1.43;;;;;;;;;;5014310;28;20064;-75
2022/05/12 11:45:47;;;;;;;4.45;1.00;;;;;;;;;;5015002;28;20045;-75
2022/05/12 11:48:52;;;;;;;3.83;1.00;;;;;;;;;;5013911;28;20020;-76
2022/05/12 11:51:39;;;;;;;7.32;1.25;;;;;;;;;;5014115;28;20026;-75
2022/05/12 11:54:11;;;;;;;3.05;0.90;;;;;;;;;;5014832;28;20117;-75
2022/05/12 11:56:46;;;;;;;7.53;1.10;;;;;;;;;;5013048;28;20368;-75
2022/05/12 11:59:17;;;;;;;2.53;0.93;;;;;;;;;;5014254;28;20026;-75
2022/05/12 12:01:52;;;;;;;3.03;1.00;;;;;;;;;;5014207;28;20022;-75
2022/05/12 12:04:44;;;;;;;4.53;0.90;;;;;;;;;;5014100;28;20026;-75
2022/05/12 12:07:37;;;;;;;4.85;1.10;;;;;;;;;;5014714;28;20021;-75
2022/05/12 12:10:25;;;;;;;5.10;1.10;;;;;;;;;;4986330;28;20555;-74
2022/05/12 12:13:15;;;;;;;5.00;1.17;;;;;;;;;;5014010;28;20484;-74
2022/05/12 12:15:55;;;;;;;3.10;1.23;;;;;;;;;;5014045;28;20077;-72
2022/05/12 12:18:25;;;;;;;2.50;0.90;;;;;;;;;;5014122;28;20109;-74
2022/05/12 12:20:59;;;;;;;5.78;0.90;;;;;;;;;;5012692;28;20021;-74
2022/05/12 12:23:32;;;;;;;3.05;0.85;;;;;;;;;;5014358;28;20505;-77
2022/05/12 12:26:01;;;;;;;3.58;1.00;;;;;;;;;;5014032;28;20037;-74
2022/05/12 12:28:43;;;;;;;2.28;0.90;;;;;;;;;;5012428;28;20025;-74
2022/05/12 12:31:26;;;;;;;2.78;0.98;;;;;;;;;;5013676;28;20113;-74
2022/05/12 12:34:09;;;;;;;3.90;0.88;;;;;;;;;;5013780;28;20041;-76
2022/05/12 12:36:35;;;;;;;3.42;0.95;;;;;;;;;;5012354;28;20071;-76
2022/05/12 12:39:00;;;;;;;5.00;1.00;;;;;;;;;;5013465;28;20460;-76
2022/05/12 12:41:29;;;;;;;2.53;0.80;;;;;;;;;;5013831;28;20030;-74
2022/05/12 12:44:05;;;;;;;0.98;0.88;;;;;;;;;;5012027;28;20036;-75
2022/05/12 12:46:48;;;;;;;3.20;1.00;;;;;;;;;;5012129;28;20065;-75
2022/05/12 12:49:43;;;;;;;1.10;0.70;;;;;;;;;;5011974;28;20053;-74
2022/05/12 12:52:12;;;;;;;3.47;0.90;;;;;;;;;;5013006;28;20025;-74
2022/05/12 12:57:28;;;;;;;2.40;1.00;;;;;;;;;;5013565;28;20041;-75
2022/05/12 12:59:57;;;;;;;8.75;1.15;;;;;;;;;;5013528;28;20025;-76
2022/05/12 13:02:32;;;;;;;3.58;0.88;;;;;;;;;;5013155;28;20521;-74
2022/05/12 13:05:03;;;;;;;5.53;1.10;;;;;;;;;;5013189;28;20399;-74
2022/05/12 13:07:30;;;;;;;2.45;0.90;;;;;;;;;;5011954;28;20022;-75
2022/05/12 13:09:57;;;;;;;4.00;0.90;;;;;;;;;;5013457;28;20029;-74
2022/05/12 13:12:26;;;;;;;4.60;0.95;;;;;;;;;;5013028;28;20036;-75
2022/05/12 13:14:53;;;;;;;2.38;1.00;;;;;;;;;;5013469;28;20021;-75
2022/05/12 13:17:36;;;;;;;3.35;0.93;;;;;;;;;;5011781;28;20022;-74
2022/05/12 13:20:04;;;;;;;2.75;1.00;;;;;;;;;;5013142;28;20045;-75
2022/05/12 13:22:39;;;;;;;3.90;0.80;;;;;;;;;;5013002;28;20022;-75
2022/05/12 13:25:05;;;;;;;1.92;0.80;;;;;;;;;;5013060;28;20404;-74
2022/05/12 13:27:35;;;;;;;1.90;0.73;;;;;;;;;;5011633;28;20498;-75
2022/05/12 13:30:05;;;;;;;1.85;0.85;;;;;;;;;;5013299;28;20042;-74
2022/05/12 13:32:44;;;;;;;2.30;0.90;;;;;;;;;;5012929;28;20030;-76
2022/05/12 13:35:14;;;;;;;3.47;1.17;;;;;;;;;;5013392;28;20018;-75
2022/05/12 13:37:46;;;;;;;5.55;1.50;;;;;;;;;;5013156;28;20026;-76
2022/05/12 13:40:38;;;;;;;3.05;1.00;;;;;;;;;;5012883;28;20484;-75
2022/05/12 13:43:05;;;;;;;4.72;0.80;;;;;;;;;;5013181;28;20040;-75
2022/05/12 13:45:31;;;;;;;1.52;0.82;;;;;;;;;;5012791;28;20029;-74
2022/05/12 13:47:59;;;;;;;5.22;0.90;;;;;;;;;;5012749;28;20545;-75
2022/05/12 13:50:43;;;;;;;2.53;0.98;;;;;;;;;;5012510;28;20033;-75
2022/05/12 13:53:09;;;;;;;3.03;0.90;;;;;;;;;;5011469;28;20026;-75
2022/05/12 13:55:35;;;;;;;4.13;0.93;;;;;;;;;;5012763;28;20041;-75
2022/05/12 13:58:04;;;;;;;2.55;1.10;;;;;;;;;;5012782;28;20038;-74
2022/05/12 14:00:32;;;;;;;3.63;0.75;;;;;;;;;;5011246;28;20022;-74
2022/05/12 14:03:30;;;;;;;4.65;1.00;;;;;;;;;;5012736;28;20056;-74
2022/05/12 14:06:17;;;;;;;3.65;0.93;;;;;;;;;;5014294;28;20434;-75
2022/05/12 14:08:43;;;;;;;2.13;1.00;;;;;;;;;;5014944;28;20022;-75
2022/05/12 14:11:14;;;;;;;3.47;0.80;;;;;;;;;;5016031;28;20443;-75
2022/05/12 14:19:30;;;;;;;3.05;0.75;;;;;;;;;;5016254;28;20509;-75
2022/05/12 14:21:58;;;;;;;1.13;0.80;;;;;;;;;;5015887;28;20030;-74
2022/05/12 14:24:26;;;;;;;6.70;1.10;;;;;;;;;;5016228;28;20148;-74
2022/05/12 14:26:52;;;;;;;5.10;0.90;;;;;;;;;;5015623;28;20029;-74
2022/05/12 14:29:17;;;;;;;1.95;0.95;;;;;;;;;;5015737;28;20105;-74
2022/05/12 14:31:45;;;;;;;2.40;1.00;;;;;;;;;;5014528;28;20115;-75
2022/05/12 14:34:12;;;;;;;3.65;1.10;;;;;;;;;;5015974;28;20080;-76
2022/05/12 14:36:37;;;;;;;2.65;0.95;;;;;;;;;;5016007;28;20030;-75
2022/05/12 14:39:04;;;;;;;10.98;0.98;;;;;;;;;;5015909;28;20483;-74
2022/05/12 14:41:29;;;;;;;1.92;0.90;;;;;;;;;;5015594;28;20030;-74
2022/05/12 14:43:54;;;;;;;3.53;1.08;;;;;;;;;;5015622;28;20102;-74
2022/05/12 14:46:22;;;;;;;8.17;0.90;;;;;;;;;;5014309;28;20034;-76
2022/05/12 14:48:48;;;;;;;1.50;0.75;;;;;;;;;;5015378;28;20263;-75
2022/05/12 14:51:16;;;;;;;3.00;0.80;;;;;;;;;;5014343;28;20030;-75
2022/05/12 14:53:41;;;;;;;4.43;1.00;;;;;;;;;;5014054;28;20036;-75
2022/05/12 14:56:07;;;;;;;4.85;0.80;;;;;;;;;;5015482;28;20026;-75
2022/05/12 14:58:33;;;;;;;5.13;1.00;;;;;;;;;;5015499;28;20098;-74
2022/05/12 15:00:58;;;;;;;1.75;0.88;;;;;;;;;;5014971;28;20029;-75
2022/05/12 15:03:23;;;;;;;5.80;1.00;;;;;;;;;;5013990;28;20032;-74
2022/05/12 15:05:49;;;;;;;3.08;0.82;;;;;;;;;;5015502;28;20053;-74
2022/05/12 15:08:14;;;;;;;2.83;0.85;;;;;;;;;;5015142;28;20029;-74
2022/05/12 15:10:40;;;;;;;1.90;0.80;;;;;;;;;;5015430;28;20025;-74
2022/05/12 15:13:05;;;;;;;3.97;1.00;;;;;;;;;;5014886;28;20060;-76
2022/05/12 15:15:32;;;;;;;7.80;1.10;;;;;;;;;;5014859;28;20017;-74
2022/05/12 15:17:57;;;;;;;3.47;0.95;;;;;;;;;;5013752;28;20029;-74
2022/05/12 15:20:23;;;;;;;2.87;0.77;;;;;;;;;;5014998;28;20109;-75
2022/05/12 15:22:49;;;;;;;2.08;0.90;;;;;;;;;;5014798;28;20267;-75
2022/05/12 15:25:15;;;;;;;8.30;1.08;;;;;;;;;;5014839;28;20177;-73
2022/05/12 15:27:43;;;;;;;5.28;1.20;;;;;;;;;;5014982;28;20021;-73
2022/05/12 15:30:11;;;;;;;3.10;0.98;;;;;;;;;;5015060;28;20530;-73
2022/05/12 15:32:37;;;;;;;6.13;1.40;;;;;;;;;;5013882;28;20026;-75
2022/05/12 15:35:02;;;;;;;6.97;1.70;;;;;;;;;;5014761;28;20036;-75